Latest Coastal Weather Observations for Flinders Island Airport

IDT60701

Issued at 5:23 pm EDT Friday 3 December 2021 (issued every 10 minutes, with the page automatically refreshed every 10 minutes)

About coastal observations | Map of coastal stations | Coastal observations for TAS | Marine services | Other Formats
Station Details ID: 099005 Name: FLINDERS ISLAND AIRPORT Lat: -40.09 Lon: 148.00 Height: 9.0 m
Data from the previous 72 hours. | See also: Recent months at Flinders Island Airport
Date/Time
EDT
Wind Sea
Height
m
Swell Vis
km
Cloud Weather Temp
°C
Press
MSL
hPa
Rain since
9am
mm
Dir  Spd
kts
Gust
kts
Height
m
Period
s
Dir
03/05:00pm W 14 18 - - - - 10 Partly cloudy - 17.4 1017.0 0.0
03/04:30pm W 14 17 - - - - 10 Partly cloudy - 17.3 1017.1 0.0
03/04:00pm WNW 13 17 - - - - 10 Partly cloudy - 17.3 1017.2 0.0
03/03:30pm WNW 13 17 - - - - 10 - - 18.2 1017.4 0.0
03/03:00pm WNW 13 17 - - - - 10 - - 18.0 1017.6 0.0
03/02:30pm W 15 18 - - - - 10 - - 17.8 1017.7 0.0
03/02:00pm W 12 16 - - - - 10 - - 18.1 1017.5 0.0
03/01:30pm WSW 12 15 - - - - 10 - - 19.2 1017.4 0.0
03/01:00pm W 11 15 - - - - 10 - - 17.9 1017.6 0.0
03/12:30pm W 11 15 - - - - 10 - - 18.7 1017.6 0.0
03/12:00pm WSW 11 14 - - - - 10 - - 18.7 1017.5 0.0
03/11:30am WSW 10 13 - - - - 10 Partly cloudy - 18.2 1017.7 0.0
03/11:00am WSW 14 16 - - - - 10 - - 18.1 1017.6 0.0
03/10:30am WSW 14 17 - - - - 10 - - 18.1 1017.4 0.0
03/10:00am SW 15 18 - - - - 10 - - 17.4 1017.2 0.0
03/09:30am SW 14 18 - - - - 10 - - 17.2 1017.1 0.0
03/09:00am SW 16 20 - - - - 10 - - 16.7 1016.9 0.4
03/08:30am WSW 19 22 - - - - 10 - - 16.5 1016.4 0.4
03/08:00am WSW 18 22 - - - - 10 - - 16.2 1016.2 0.4
03/07:30am WSW 21 26 - - - - 10 - - 15.5 1015.9 0.4
03/07:00am WSW 20 26 - - - - 10 - - 15.4 1015.4 0.4
03/06:30am WSW 21 25 - - - - 10 - - 14.7 1015.1 0.4
03/06:00am WSW 19 24 - - - - 10 Mostly clear - 14.4 1014.7 0.4
03/05:30am WSW 20 26 - - - - 10 Partly cloudy - 14.2 1014.3 0.4
03/05:00am WSW 23 28 - - - - 10 - - 14.2 1013.8 0.4
03/04:30am WSW 24 28 - - - - 10 Partly cloudy - 14.1 1013.5 0.4
03/04:00am WSW 21 25 - - - - 10 - - 14.4 1013.3 0.4
03/03:30am WSW 22 27 - - - - 10 Partly cloudy - 14.2 1013.0 0.4
03/03:00am WSW 21 24 - - - - 10 Partly cloudy - 14.4 1013.1 0.4
03/02:33am WSW 20 23 - - - - 10 Partly cloudy - 14.8 1013.2 0.4
03/02:30am WSW 19 23 - - - - 10 Partly cloudy - 14.7 1013.3 0.4
03/02:00am WSW 24 28 - - - - 10 Partly cloudy - 14.7 1013.3 0.4
03/01:30am WSW 22 27 - - - - 10 Cloudy - 14.9 1013.3 0.4
03/01:00am WSW 23 29 - - - - 10 Partly cloudy - 15.9 1012.9 0.4
03/12:50am WSW 21 26 - - - - 10 Partly cloudy - 16.6 1012.9 0.4
03/12:39am W 15 24 - - - - 10 - - 16.8 1012.8 0.4
03/12:30am WNW 10 14 - - - - 10 Partly cloudy - 16.5 1012.8 0.4
03/12:00am WNW 5 9 - - - - 10 Cloudy Rain 16.4 1012.8 0.4
 
Date/Time
EDT
Wind Sea
Height
m
Swell Vis
km
Cloud Weather Temp
°C
Press
MSL
hPa
Rain since
9am
mm
Dir  Spd
kts
Gust
kts
Height
m
Period
s
Dir
02/11:30pm CALM 0 0 - - - - 10 Partly cloudy - 16.6 1013.1 0.2
02/11:00pm NW 5 6 - - - - 10 Partly cloudy - 17.0 1013.2 0.2
02/10:30pm NE 1 5 - - - - 10 Partly cloudy - 17.3 1013.1 0.2
02/10:00pm NE 1 5 - - - - 10 Cloudy - 17.2 1013.6 0.2
02/09:30pm NNW 7 13 - - - - 10 Partly cloudy - 17.6 1013.7 0.2
02/09:10pm NW 16 26 - - - - 10 Partly cloudy - 18.2 1014.8 0.0
02/09:00pm NW 20 28 - - - - 9 Partly cloudy - 18.4 1015.3 0.0
02/08:45pm NNE 17 29 - - - - 10 Partly cloudy - 19.5 1014.2 0.0
02/08:44pm NNE 16 20 - - - - 10 Partly cloudy - 19.4 1013.0 0.0
02/08:30pm NE 16 20 - - - - 10 Cloudy - 19.5 1011.0 0.0
02/08:00pm NE 17 21 - - - - 10 - - 19.5 1009.9 0.0
02/07:30pm NE 17 20 - - - - 10 - - 19.9 1009.7 0.0
02/07:00pm NE 19 22 - - - - 10 Partly cloudy - 20.2 1009.9 0.0
02/06:30pm NE 18 25 - - - - 10 - - 20.9 1011.0 0.0
02/06:00pm NNE 17 22 - - - - 10 Cloudy - 21.7 1010.9 0.0
02/05:30pm NNE 18 22 - - - - 10 - - 21.9 1010.8 0.0
02/05:00pm NNE 18 24 - - - - 10 - - 23.0 1011.1 0.0
02/04:30pm NNE 19 26 - - - - 10 - - 22.8 1011.6 0.0
02/04:00pm NE 16 21 - - - - 10 - - 23.7 1011.7 0.0
02/03:30pm NNE 18 23 - - - - 10 - - 23.6 1012.2 0.0
02/03:00pm NE 16 19 - - - - 10 Mostly clear - 24.5 1012.5 0.0
02/02:30pm NE 9 14 - - - - 10 - - 24.6 1012.9 0.0
02/02:00pm ENE 10 15 - - - - 10 - - 24.7 1013.1 0.0
02/01:30pm ENE 12 16 - - - - 10 - - 25.8 1013.3 0.0
02/01:00pm ENE 12 16 - - - - 10 - - 26.4 1013.5 0.0
02/12:30pm ENE 11 15 - - - - 10 - - 26.6 1013.7 0.0
02/12:00pm ENE 6 9 - - - - 10 Mostly clear - 27.1 1013.9 0.0
02/11:30am ENE 9 11 - - - - 10 - - 27.4 1014.0 0.0
02/11:00am ENE 6 9 - - - - 10 - - 27.0 1014.2 0.0
02/10:30am ENE 9 11 - - - - 10 - - 26.6 1013.9 0.0
02/10:00am ENE 6 9 - - - - 10 - - 24.5 1014.1 0.0
02/09:30am NE 10 15 - - - - 10 - - 24.0 1014.1 0.0
02/09:00am NE 5 7 - - - - 10 Partly cloudy - 24.6 1014.2 0.0
02/08:30am ENE 7 9 - - - - 10 - - 21.5 1014.2 0.0
02/08:00am ENE 9 13 - - - - 10 - - 19.3 1013.8 0.0
02/07:30am NE 12 15 - - - - 10 - - 17.4 1013.9 0.0
02/07:00am ENE 8 11 - - - - 10 - - 16.5 1013.9 0.0
02/06:30am ENE 6 9 - - - - 10 - - 15.4 1013.8 0.0
02/06:00am ENE 8 10 - - - - 10 - - 14.5 1013.7 0.0
02/05:30am ENE 5 6 - - - - 10 - - 13.9 1013.6 0.0
02/05:00am ENE 7 9 - - - - 10 - - 14.5 1013.2 0.0
02/04:30am ENE 7 10 - - - - 10 - - 14.9 1012.9 0.0
02/04:00am ENE 7 9 - - - - 10 - - 15.0 1013.3 0.0
02/03:30am ENE 8 11 - - - - 10 - - 15.1 1013.4 0.0
02/03:00am ENE 6 8 - - - - 10 - - 15.4 1013.6 0.0
02/02:30am ENE 6 8 - - - - 10 - - 15.7 1013.7 0.0
02/02:00am E 9 11 - - - - 10 - - 16.6 1013.7 0.0
02/01:30am ENE 8 12 - - - - 10 - - 17.0 1014.1 0.0
02/01:00am ENE 4 6 - - - - 10 - - 17.5 1014.2 0.0
02/12:30am ENE 4 6 - - - - 10 - - 17.9 1014.1 0.0
02/12:00am ENE 5 7 - - - - 10 Mostly cloudy - 17.7 1014.4 0.0
 
Date/Time
EDT
Wind Sea
Height
m
Swell Vis
km
Cloud Weather Temp
°C
Press
MSL
hPa
Rain since
9am
mm
Dir  Spd
kts
Gust
kts
Height
m
Period
s
Dir
01/11:30pm ENE 5 8 - - - - 10 - - 17.6 1014.5 0.0
01/11:00pm ENE 8 12 - - - - 10 - - 18.1 1014.2 0.0
01/10:30pm ENE 8 12 - - - - 10 - - 19.1 1014.3 0.0
01/10:00pm ENE 9 12 - - - - 10 - - 17.9 1014.3 0.0
01/09:30pm ENE 12 16 - - - - 10 - - 18.1 1014.3 0.0
01/09:00pm NE 14 17 - - - - 10 - - 18.9 1013.9 0.0
01/08:30pm NE 11 14 - - - - 10 - - 18.9 1013.8 0.0
01/08:00pm NE 13 18 - - - - 10 - - 20.2 1013.8 0.0
01/07:30pm NE 11 15 - - - - 10 - - 21.2 1013.3 0.0
01/07:00pm ENE 13 16 - - - - 10 - - 21.4 1012.9 0.0
01/06:30pm NE 10 14 - - - - 10 - - 23.4 1012.6 0.0
01/06:00pm NE 14 17 - - - - 10 Mostly cloudy - 24.1 1012.4 0.0
01/05:30pm NE 14 17 - - - - 10 - - 23.8 1012.4 0.0
01/05:00pm NE 10 15 - - - - 10 - - 24.3 1012.4 0.0
01/04:30pm NE 13 16 - - - - 10 - - 24.9 1012.6 0.0
01/04:00pm NE 11 15 - - - - 10 - - 26.4 1012.9 0.0
01/03:30pm NNE 9 15 - - - - 10 - - 26.4 1013.2 0.0
01/03:00pm NE 10 14 - - - - 10 Partly cloudy - 25.8 1013.3 0.0
01/02:30pm NNE 9 14 - - - - 10 - - 25.7 1013.6 0.0
01/02:00pm NE 9 13 - - - - 10 - - 25.5 1013.7 0.0
01/01:30pm NE 9 13 - - - - 10 Partly cloudy - 25.2 1013.8 0.0
01/01:00pm NE 9 13 - - - - 10 Partly cloudy - 24.7 1013.8 0.0
01/12:30pm NE 10 14 - - - - 10 - - 24.5 1014.0 0.0
01/12:00pm ENE 9 15 - - - - 10 - - 24.2 1013.9 0.0
01/11:30am NNE 13 15 - - - - 10 - - 23.7 1013.8 0.0
01/11:00am NE 11 15 - - - - 10 - - 22.4 1013.9 0.0
01/10:30am NE 11 15 - - - - 10 - - 22.1 1014.0 0.0
01/10:00am NE 15 18 - - - - 10 - - 21.2 1014.1 0.0
01/09:30am NE 14 18 - - - - 10 - - 21.2 1014.2 0.0
01/09:00am NE 14 17 - - - - 10 - - 20.6 1014.3 -
01/08:30am NE 13 18 - - - - 10 - - 19.6 1014.2 -
01/08:00am NE 11 15 - - - - 10 - - 18.7 1014.1 -
01/07:30am ENE 10 14 - - - - 10 - - 18.2 1014.1 -
01/07:00am E 9 12 - - - - 10 - - 17.4 1013.7 -
01/06:30am ENE 11 15 - - - - 10 - - 16.5 1013.9 -
01/06:00am ENE 9 14 - - - - 10 - - 15.2 1013.7 -
01/05:00am E 6 7 - - - - 10 - - 14.6 1013.6 -
01/04:30am E 5 9 - - - - 10 - - 15.2 1013.7 -
01/04:00am ENE 7 8 - - - - 10 - - 15.4 1013.6 -
01/03:30am ENE 9 14 - - - - 10 - - 15.7 1013.5 -
01/03:00am ENE 14 19 - - - - 10 - - 15.8 1013.7 0.0
01/02:30am ENE 10 15 - - - - 10 - - 15.7 1014.1 -
01/02:00am ENE 8 12 - - - - 10 - - 15.6 1014.6 -
01/01:30am ENE 8 12 - - - - 10 - - 15.2 1014.9 -
01/01:00am E 8 12 - - - - 10 - - 15.6 1015.2 -
01/12:30am ENE 10 15 - - - - 10 - - 15.9 1015.3 -
01/12:00am ENE 12 17 - - - - 10 - - 15.8 1014.9 -
 
Date/Time
EDT
Wind Sea
Height
m
Swell Vis
km
Cloud Weather Temp
°C
Press
MSL
hPa
Rain since
9am
mm
Dir  Spd
kts
Gust
kts
Height
m
Period
s
Dir
30/11:30pm ENE 11 15 - - - - 10 - - 15.9 1015.1 -
30/11:00pm ENE 11 15 - - - - 10 - - 16.1 1015.4 -
30/10:30pm ENE 12 16 - - - - 10 - - 16.4 1015.6 -
30/10:00pm ENE 13 17 - - - - 10 - - 16.3 1015.5 -
30/09:30pm NE 13 18 - - - - 10 - - 16.3 1015.6 -
30/09:00pm ENE 12 17 - - - - 10 - - 16.5 1015.5 0.0
30/08:30pm ENE 12 18 - - - - 10 - - 16.7 1015.1 -
30/08:00pm ENE 15 20 - - - - 10 - - 17.3 1014.8 -
30/07:30pm ENE 15 19 - - - - 10 Partly cloudy - 18.0 1015.0 -
30/07:00pm ENE 13 19 - - - - 10 - - 18.5 1014.9 -
30/06:30pm NE 14 20 - - - - 10 Partly cloudy - 19.1 1014.9 -
30/06:00pm NE 15 21 - - - - 10 - - 19.7 1014.7 -
30/05:30pm NE 17 22 - - - - 10 Partly cloudy - 19.8 1014.8 -

Other formats

Comma delimited format used in spreadsheet applications
http://www.bom.gov.au/fwo/IDT60701/IDT60701.94980.axf

JavaScript Object Notation format (JSON) in row-major order
http://www.bom.gov.au/fwo/IDT60701/IDT60701.94980.json

Data quality

Most of these data are generated automatically and are frequently updated. Quality checks on data are not normally performed. It is possible for incorrect values to appear. Refer to information at About Latest Weather Observations and please check the disclaimer before using these data.